sensor_id;sensor_type;location;lat;lon;timestamp;P1;durP1;ratioP1;P2;durP2;ratioP2
8881;SDS011;4477;48.736;9.176;2023-04-24T00:01:29;3.50;;;1.40;;
8881;SDS011;4477;48.736;9.176;2023-04-24T00:03:56;1.33;;;1.20;;
8881;SDS011;4477;48.736;9.176;2023-04-24T00:06:24;2.57;;;1.40;;
8881;SDS011;4477;48.736;9.176;2023-04-24T00:08:58;2.90;;;1.37;;
8881;SDS011;4477;48.736;9.176;2023-04-24T00:11:25;3.93;;;1.40;;
8881;SDS011;4477;48.736;9.176;2023-04-24T00:13:52;2.50;;;1.30;;
8881;SDS011;4477;48.736;9.176;2023-04-24T00:16:21;2.33;;;1.47;;
8881;SDS011;4477;48.736;9.176;2023-04-24T00:18:48;2.00;;;1.47;;
8881;SDS011;4477;48.736;9.176;2023-04-24T00:21:17;2.00;;;1.30;;
8881;SDS011;4477;48.736;9.176;2023-04-24T00:23:45;4.60;;;1.13;;
8881;SDS011;4477;48.736;9.176;2023-04-24T00:26:12;4.17;;;1.30;;
8881;SDS011;4477;48.736;9.176;2023-04-24T00:28:40;3.47;;;1.40;;
8881;SDS011;4477;48.736;9.176;2023-04-24T00:31:07;1.67;;;1.10;;
8881;SDS011;4477;48.736;9.176;2023-04-24T00:33:35;1.10;;;0.93;;
8881;SDS011;4477;48.736;9.176;2023-04-24T00:36:03;2.77;;;1.20;;
8881;SDS011;4477;48.736;9.176;2023-04-24T00:38:30;2.60;;;1.20;;
8881;SDS011;4477;48.736;9.176;2023-04-24T00:40:58;1.70;;;1.10;;
8881;SDS011;4477;48.736;9.176;2023-04-24T00:43:25;3.80;;;1.30;;
8881;SDS011;4477;48.736;9.176;2023-04-24T00:45:52;2.40;;;1.27;;
8881;SDS011;4477;48.736;9.176;2023-04-24T00:48:19;1.53;;;1.10;;
8881;SDS011;4477;48.736;9.176;2023-04-24T00:50:48;2.97;;;1.30;;
8881;SDS011;4477;48.736;9.176;2023-04-24T00:53:15;2.17;;;1.10;;
8881;SDS011;4477;48.736;9.176;2023-04-24T00:55:42;1.60;;;1.10;;
8881;SDS011;4477;48.736;9.176;2023-04-24T00:58:10;2.70;;;1.10;;
8881;SDS011;4477;48.736;9.176;2023-04-24T01:00:37;1.00;;;0.90;;
8881;SDS011;4477;48.736;9.176;2023-04-24T01:03:05;2.97;;;1.30;;
8881;SDS011;4477;48.736;9.176;2023-04-24T01:05:33;3.40;;;1.23;;
8881;SDS011;4477;48.736;9.176;2023-04-24T01:08:02;3.70;;;1.27;;
8881;SDS011;4477;48.736;9.176;2023-04-24T01:10:29;1.43;;;1.03;;
8881;SDS011;4477;48.736;9.176;2023-04-24T01:12:57;1.83;;;1.10;;
8881;SDS011;4477;48.736;9.176;2023-04-24T01:15:25;2.43;;;1.10;;
8881;SDS011;4477;48.736;9.176;2023-04-24T01:17:52;3.07;;;1.30;;
8881;SDS011;4477;48.736;9.176;2023-04-24T01:20:19;3.70;;;1.20;;
8881;SDS011;4477;48.736;9.176;2023-04-24T01:22:48;3.23;;;1.10;;
8881;SDS011;4477;48.736;9.176;2023-04-24T01:25:15;1.73;;;1.00;;
8881;SDS011;4477;48.736;9.176;2023-04-24T01:27:42;1.80;;;1.27;;
8881;SDS011;4477;48.736;9.176;2023-04-24T01:30:10;1.43;;;0.90;;
8881;SDS011;4477;48.736;9.176;2023-04-24T01:32:37;1.20;;;1.10;;
8881;SDS011;4477;48.736;9.176;2023-04-24T01:35:05;2.67;;;1.10;;
8881;SDS011;4477;48.736;9.176;2023-04-24T01:37:32;1.77;;;1.10;;
8881;SDS011;4477;48.736;9.176;2023-04-24T01:40:03;1.83;;;1.27;;
8881;SDS011;4477;48.736;9.176;2023-04-24T01:42:31;2.87;;;1.40;;
8881;SDS011;4477;48.736;9.176;2023-04-24T01:44:58;3.90;;;1.23;;
8881;SDS011;4477;48.736;9.176;2023-04-24T01:47:26;2.00;;;1.20;;
8881;SDS011;4477;48.736;9.176;2023-04-24T01:49:53;3.23;;;1.03;;
8881;SDS011;4477;48.736;9.176;2023-04-24T01:52:21;2.60;;;1.00;;
8881;SDS011;4477;48.736;9.176;2023-04-24T01:54:48;4.10;;;1.30;;
8881;SDS011;4477;48.736;9.176;2023-04-24T01:57:16;2.23;;;1.17;;
8881;SDS011;4477;48.736;9.176;2023-04-24T01:59:44;3.70;;;1.10;;
8881;SDS011;4477;48.736;9.176;2023-04-24T02:02:11;1.23;;;1.10;;
8881;SDS011;4477;48.736;9.176;2023-04-24T02:04:38;2.20;;;1.07;;
8881;SDS011;4477;48.736;9.176;2023-04-24T02:07:06;2.53;;;1.00;;
8881;SDS011;4477;48.736;9.176;2023-04-24T02:09:33;1.10;;;1.00;;
8881;SDS011;4477;48.736;9.176;2023-04-24T02:12:00;3.07;;;1.10;;
8881;SDS011;4477;48.736;9.176;2023-04-24T02:14:28;1.43;;;1.20;;
8881;SDS011;4477;48.736;9.176;2023-04-24T02:16:56;1.43;;;1.20;;
8881;SDS011;4477;48.736;9.176;2023-04-24T02:19:23;2.20;;;1.40;;
8881;SDS011;4477;48.736;9.176;2023-04-24T02:21:50;2.67;;;1.20;;
8881;SDS011;4477;48.736;9.176;2023-04-24T02:24:17;2.43;;;1.33;;
8881;SDS011;4477;48.736;9.176;2023-04-24T02:26:44;2.70;;;1.00;;
8881;SDS011;4477;48.736;9.176;2023-04-24T02:29:11;2.27;;;0.97;;
8881;SDS011;4477;48.736;9.176;2023-04-24T02:31:40;2.33;;;1.00;;
8881;SDS011;4477;48.736;9.176;2023-04-24T02:34:07;3.03;;;1.10;;
8881;SDS011;4477;48.736;9.176;2023-04-24T02:36:34;2.47;;;1.13;;
8881;SDS011;4477;48.736;9.176;2023-04-24T02:39:01;3.03;;;1.00;;
8881;SDS011;4477;48.736;9.176;2023-04-24T02:41:28;1.10;;;1.00;;
8881;SDS011;4477;48.736;9.176;2023-04-24T02:43:57;2.03;;;1.10;;
8881;SDS011;4477;48.736;9.176;2023-04-24T02:46:25;1.60;;;1.30;;
8881;SDS011;4477;48.736;9.176;2023-04-24T02:48:53;1.43;;;1.00;;
8881;SDS011;4477;48.736;9.176;2023-04-24T02:51:20;3.23;;;1.33;;
8881;SDS011;4477;48.736;9.176;2023-04-24T02:53:47;1.93;;;1.10;;
8881;SDS011;4477;48.736;9.176;2023-04-24T02:56:14;3.13;;;1.40;;
8881;SDS011;4477;48.736;9.176;2023-04-24T02:58:41;1.20;;;1.10;;
8881;SDS011;4477;48.736;9.176;2023-04-24T03:01:09;6.10;;;1.20;;
8881;SDS011;4477;48.736;9.176;2023-04-24T03:03:36;2.67;;;1.30;;
8881;SDS011;4477;48.736;9.176;2023-04-24T03:06:04;1.43;;;1.10;;
8881;SDS011;4477;48.736;9.176;2023-04-24T03:08:33;2.70;;;1.30;;
8881;SDS011;4477;48.736;9.176;2023-04-24T03:11:00;2.63;;;1.30;;
8881;SDS011;4477;48.736;9.176;2023-04-24T03:13:27;3.60;;;1.30;;
8881;SDS011;4477;48.736;9.176;2023-04-24T03:15:54;3.17;;;1.30;;
8881;SDS011;4477;48.736;9.176;2023-04-24T03:18:21;1.43;;;1.30;;
8881;SDS011;4477;48.736;9.176;2023-04-24T03:20:49;1.83;;;1.40;;
8881;SDS011;4477;48.736;9.176;2023-04-24T03:23:17;2.40;;;1.07;;
8881;SDS011;4477;48.736;9.176;2023-04-24T03:25:44;3.30;;;1.63;;
8881;SDS011;4477;48.736;9.176;2023-04-24T03:28:13;4.67;;;1.70;;
8881;SDS011;4477;48.736;9.176;2023-04-24T03:30:40;2.90;;;1.40;;
8881;SDS011;4477;48.736;9.176;2023-04-24T03:33:07;2.93;;;1.60;;
8881;SDS011;4477;48.736;9.176;2023-04-24T03:35:34;3.37;;;1.50;;
8881;SDS011;4477;48.736;9.176;2023-04-24T03:38:02;2.70;;;1.60;;
8881;SDS011;4477;48.736;9.176;2023-04-24T03:40:31;2.10;;;1.50;;
8881;SDS011;4477;48.736;9.176;2023-04-24T03:42:59;2.40;;;1.43;;
8881;SDS011;4477;48.736;9.176;2023-04-24T03:45:26;2.03;;;1.30;;
8881;SDS011;4477;48.736;9.176;2023-04-24T03:47:53;3.03;;;1.33;;
8881;SDS011;4477;48.736;9.176;2023-04-24T03:50:21;1.60;;;1.27;;
8881;SDS011;4477;48.736;9.176;2023-04-24T03:52:48;2.57;;;1.43;;
8881;SDS011;4477;48.736;9.176;2023-04-24T03:55:15;3.00;;;1.70;;
8881;SDS011;4477;48.736;9.176;2023-04-24T03:57:43;1.97;;;1.33;;
8881;SDS011;4477;48.736;9.176;2023-04-24T04:00:11;2.60;;;1.63;;
8881;SDS011;4477;48.736;9.176;2023-04-24T04:02:39;3.10;;;2.03;;
8881;SDS011;4477;48.736;9.176;2023-04-24T04:05:06;5.60;;;1.73;;
8881;SDS011;4477;48.736;9.176;2023-04-24T04:07:34;2.07;;;1.70;;
8881;SDS011;4477;48.736;9.176;2023-04-24T04:10:01;2.13;;;1.60;;
8881;SDS011;4477;48.736;9.176;2023-04-24T04:12:28;2.33;;;1.50;;
8881;SDS011;4477;48.736;9.176;2023-04-24T04:14:57;2.57;;;1.50;;
8881;SDS011;4477;48.736;9.176;2023-04-24T04:17:24;2.73;;;2.00;;
8881;SDS011;4477;48.736;9.176;2023-04-24T04:19:51;2.60;;;1.20;;
8881;SDS011;4477;48.736;9.176;2023-04-24T04:22:18;2.03;;;1.30;;
8881;SDS011;4477;48.736;9.176;2023-04-24T04:24:45;1.77;;;1.27;;
8881;SDS011;4477;48.736;9.176;2023-04-24T04:27:12;2.20;;;1.17;;
8881;SDS011;4477;48.736;9.176;2023-04-24T04:29:41;2.47;;;1.63;;
8881;SDS011;4477;48.736;9.176;2023-04-24T04:32:10;3.73;;;1.67;;
8881;SDS011;4477;48.736;9.176;2023-04-24T04:34:37;2.23;;;1.37;;
8881;SDS011;4477;48.736;9.176;2023-04-24T04:37:07;2.07;;;1.60;;
8881;SDS011;4477;48.736;9.176;2023-04-24T04:39:36;2.10;;;1.90;;
8881;SDS011;4477;48.736;9.176;2023-04-24T04:42:05;2.07;;;1.87;;
8881;SDS011;4477;48.736;9.176;2023-04-24T04:44:32;2.47;;;1.63;;
8881;SDS011;4477;48.736;9.176;2023-04-24T04:47:01;4.27;;;2.50;;
8881;SDS011;4477;48.736;9.176;2023-04-24T04:49:31;3.30;;;2.30;;
8881;SDS011;4477;48.736;9.176;2023-04-24T04:51:59;2.50;;;2.30;;
8881;SDS011;4477;48.736;9.176;2023-04-24T04:54:26;3.10;;;2.80;;
8881;SDS011;4477;48.736;9.176;2023-04-24T04:56:53;2.87;;;2.30;;
8881;SDS011;4477;48.736;9.176;2023-04-24T04:59:22;3.60;;;2.73;;
8881;SDS011;4477;48.736;9.176;2023-04-24T05:01:49;3.27;;;2.67;;
8881;SDS011;4477;48.736;9.176;2023-04-24T05:04:16;4.50;;;3.03;;
8881;SDS011;4477;48.736;9.176;2023-04-24T05:06:44;3.53;;;2.73;;
8881;SDS011;4477;48.736;9.176;2023-04-24T05:09:12;3.10;;;2.80;;
8881;SDS011;4477;48.736;9.176;2023-04-24T05:11:40;3.47;;;2.70;;
8881;SDS011;4477;48.736;9.176;2023-04-24T05:14:07;4.87;;;3.13;;
8881;SDS011;4477;48.736;9.176;2023-04-24T05:16:34;3.87;;;2.70;;
8881;SDS011;4477;48.736;9.176;2023-04-24T05:19:01;2.90;;;2.70;;
8881;SDS011;4477;48.736;9.176;2023-04-24T05:21:29;4.40;;;3.00;;
8881;SDS011;4477;48.736;9.176;2023-04-24T05:23:57;2.97;;;2.67;;
8881;SDS011;4477;48.736;9.176;2023-04-24T05:26:24;3.30;;;2.80;;
8881;SDS011;4477;48.736;9.176;2023-04-24T05:28:52;2.73;;;2.53;;
8881;SDS011;4477;48.736;9.176;2023-04-24T05:31:19;2.93;;;2.73;;
8881;SDS011;4477;48.736;9.176;2023-04-24T05:33:46;4.33;;;2.80;;
8881;SDS011;4477;48.736;9.176;2023-04-24T05:36:13;3.67;;;2.83;;
8881;SDS011;4477;48.736;9.176;2023-04-24T05:38:40;3.00;;;2.73;;
8881;SDS011;4477;48.736;9.176;2023-04-24T05:41:09;3.27;;;2.80;;
8881;SDS011;4477;48.736;9.176;2023-04-24T05:43:36;4.07;;;2.90;;
8881;SDS011;4477;48.736;9.176;2023-04-24T05:46:03;3.33;;;2.60;;
8881;SDS011;4477;48.736;9.176;2023-04-24T05:48:30;3.30;;;2.80;;
8881;SDS011;4477;48.736;9.176;2023-04-24T05:50:57;3.07;;;2.40;;
8881;SDS011;4477;48.736;9.176;2023-04-24T05:53:24;4.33;;;3.10;;
8881;SDS011;4477;48.736;9.176;2023-04-24T05:55:51;2.90;;;2.60;;
8881;SDS011;4477;48.736;9.176;2023-04-24T05:58:20;3.73;;;2.73;;
8881;SDS011;4477;48.736;9.176;2023-04-24T06:00:47;3.93;;;2.73;;
8881;SDS011;4477;48.736;9.176;2023-04-24T06:03:14;3.70;;;3.40;;
8881;SDS011;4477;48.736;9.176;2023-04-24T06:05:41;3.50;;;3.20;;
8881;SDS011;4477;48.736;9.176;2023-04-24T06:08:09;3.20;;;2.90;;
8881;SDS011;4477;48.736;9.176;2023-04-24T06:10:36;4.83;;;3.53;;
8881;SDS011;4477;48.736;9.176;2023-04-24T06:13:03;3.23;;;2.93;;
8881;SDS011;4477;48.736;9.176;2023-04-24T06:15:33;3.47;;;3.17;;
8881;SDS011;4477;48.736;9.176;2023-04-24T06:18:00;3.40;;;3.03;;
8881;SDS011;4477;48.736;9.176;2023-04-24T06:20:27;6.07;;;3.57;;
8881;SDS011;4477;48.736;9.176;2023-04-24T06:22:54;4.30;;;2.97;;
8881;SDS011;4477;48.736;9.176;2023-04-24T06:25:21;2.67;;;2.47;;
8881;SDS011;4477;48.736;9.176;2023-04-24T06:27:49;5.10;;;2.60;;
8881;SDS011;4477;48.736;9.176;2023-04-24T06:30:16;2.30;;;2.10;;
8881;SDS011;4477;48.736;9.176;2023-04-24T06:32:44;2.73;;;2.30;;
8881;SDS011;4477;48.736;9.176;2023-04-24T06:35:11;2.93;;;2.00;;
8881;SDS011;4477;48.736;9.176;2023-04-24T06:37:38;2.37;;;2.10;;
8881;SDS011;4477;48.736;9.176;2023-04-24T06:40:06;2.33;;;2.00;;
8881;SDS011;4477;48.736;9.176;2023-04-24T06:42:34;2.70;;;2.10;;
8881;SDS011;4477;48.736;9.176;2023-04-24T06:45:01;2.67;;;1.83;;
8881;SDS011;4477;48.736;9.176;2023-04-24T06:47:28;2.87;;;1.90;;
8881;SDS011;4477;48.736;9.176;2023-04-24T06:49:56;3.43;;;1.43;;
8881;SDS011;4477;48.736;9.176;2023-04-24T06:52:24;4.47;;;1.90;;
8881;SDS011;4477;48.736;9.176;2023-04-24T06:54:51;3.87;;;1.73;;
8881;SDS011;4477;48.736;9.176;2023-04-24T06:57:18;1.80;;;1.70;;
8881;SDS011;4477;48.736;9.176;2023-04-24T06:59:46;1.90;;;1.80;;
8881;SDS011;4477;48.736;9.176;2023-04-24T07:02:13;2.17;;;1.90;;
8881;SDS011;4477;48.736;9.176;2023-04-24T07:04:40;3.10;;;1.83;;
8881;SDS011;4477;48.736;9.176;2023-04-24T07:07:09;3.07;;;2.17;;
8881;SDS011;4477;48.736;9.176;2023-04-24T07:09:38;2.50;;;2.30;;
8881;SDS011;4477;48.736;9.176;2023-04-24T07:12:07;4.23;;;2.37;;
8881;SDS011;4477;48.736;9.176;2023-04-24T07:14:35;2.93;;;2.50;;
8881;SDS011;4477;48.736;9.176;2023-04-24T07:17:02;2.60;;;2.10;;
8881;SDS011;4477;48.736;9.176;2023-04-24T07:19:30;2.63;;;2.20;;
8881;SDS011;4477;48.736;9.176;2023-04-24T07:21:57;4.73;;;2.30;;
8881;SDS011;4477;48.736;9.176;2023-04-24T07:24:26;2.43;;;2.23;;
8881;SDS011;4477;48.736;9.176;2023-04-24T07:26:53;3.30;;;2.33;;
8881;SDS011;4477;48.736;9.176;2023-04-24T07:29:21;2.90;;;2.60;;
8881;SDS011;4477;48.736;9.176;2023-04-24T07:31:49;1.90;;;1.80;;
8881;SDS011;4477;48.736;9.176;2023-04-24T07:34:16;2.90;;;2.13;;
8881;SDS011;4477;48.736;9.176;2023-04-24T07:36:43;3.87;;;2.20;;
8881;SDS011;4477;48.736;9.176;2023-04-24T07:39:10;2.77;;;1.90;;
8881;SDS011;4477;48.736;9.176;2023-04-24T07:41:39;2.43;;;2.20;;
8881;SDS011;4477;48.736;9.176;2023-04-24T07:44:06;3.37;;;1.77;;
8881;SDS011;4477;48.736;9.176;2023-04-24T07:46:33;1.77;;;1.50;;
8881;SDS011;4477;48.736;9.176;2023-04-24T07:49:00;3.60;;;1.60;;
8881;SDS011;4477;48.736;9.176;2023-04-24T07:51:29;1.70;;;1.60;;
8881;SDS011;4477;48.736;9.176;2023-04-24T07:53:57;1.93;;;1.57;;
8881;SDS011;4477;48.736;9.176;2023-04-24T07:56:24;1.93;;;1.70;;
8881;SDS011;4477;48.736;9.176;2023-04-24T07:58:53;1.93;;;1.60;;
8881;SDS011;4477;48.736;9.176;2023-04-24T08:01:20;1.50;;;1.40;;
8881;SDS011;4477;48.736;9.176;2023-04-24T08:03:47;2.00;;;1.50;;
8881;SDS011;4477;48.736;9.176;2023-04-24T08:06:14;1.60;;;1.50;;
8881;SDS011;4477;48.736;9.176;2023-04-24T08:08:42;1.80;;;1.10;;
8881;SDS011;4477;48.736;9.176;2023-04-24T08:11:09;3.20;;;1.70;;
8881;SDS011;4477;48.736;9.176;2023-04-24T08:13:36;1.47;;;1.37;;
8881;SDS011;4477;48.736;9.176;2023-04-24T08:16:04;2.20;;;1.50;;
8881;SDS011;4477;48.736;9.176;2023-04-24T08:18:32;1.53;;;1.43;;
8881;SDS011;4477;48.736;9.176;2023-04-24T08:21:00;2.10;;;1.60;;
8881;SDS011;4477;48.736;9.176;2023-04-24T08:23:28;3.20;;;1.60;;
8881;SDS011;4477;48.736;9.176;2023-04-24T08:25:55;1.50;;;1.40;;
8881;SDS011;4477;48.736;9.176;2023-04-24T08:28:22;2.50;;;1.67;;
8881;SDS011;4477;48.736;9.176;2023-04-24T08:30:50;2.50;;;1.53;;
8881;SDS011;4477;48.736;9.176;2023-04-24T08:33:21;3.33;;;1.77;;
8881;SDS011;4477;48.736;9.176;2023-04-24T08:35:48;2.53;;;1.37;;
8881;SDS011;4477;48.736;9.176;2023-04-24T08:38:15;3.63;;;1.67;;
8881;SDS011;4477;48.736;9.176;2023-04-24T08:40:42;3.57;;;1.50;;
8881;SDS011;4477;48.736;9.176;2023-04-24T08:43:10;4.53;;;1.67;;
8881;SDS011;4477;48.736;9.176;2023-04-24T08:45:39;1.87;;;1.33;;
8881;SDS011;4477;48.736;9.176;2023-04-24T08:48:06;1.77;;;1.53;;
8881;SDS011;4477;48.736;9.176;2023-04-24T08:50:35;1.90;;;1.40;;
8881;SDS011;4477;48.736;9.176;2023-04-24T08:53:03;2.37;;;1.40;;
8881;SDS011;4477;48.736;9.176;2023-04-24T08:55:30;6.97;;;1.47;;
8881;SDS011;4477;48.736;9.176;2023-04-24T08:57:59;3.63;;;1.33;;
8881;SDS011;4477;48.736;9.176;2023-04-24T09:00:28;2.40;;;1.60;;
8881;SDS011;4477;48.736;9.176;2023-04-24T09:02:55;2.83;;;1.60;;
8881;SDS011;4477;48.736;9.176;2023-04-24T09:05:22;2.40;;;1.40;;
8881;SDS011;4477;48.736;9.176;2023-04-24T09:07:53;1.50;;;1.40;;
8881;SDS011;4477;48.736;9.176;2023-04-24T09:10:20;2.53;;;1.33;;
8881;SDS011;4477;48.736;9.176;2023-04-24T09:12:48;2.87;;;1.77;;
8881;SDS011;4477;48.736;9.176;2023-04-24T09:15:16;3.47;;;1.60;;
8881;SDS011;4477;48.736;9.176;2023-04-24T09:17:43;2.40;;;1.60;;
8881;SDS011;4477;48.736;9.176;2023-04-24T09:20:11;5.50;;;2.00;;
8881;SDS011;4477;48.736;9.176;2023-04-24T09:22:38;5.50;;;1.90;;
8881;SDS011;4477;48.736;9.176;2023-04-24T09:25:07;2.50;;;1.70;;
8881;SDS011;4477;48.736;9.176;2023-04-24T09:27:37;1.63;;;1.53;;
8881;SDS011;4477;48.736;9.176;2023-04-24T09:30:08;4.97;;;1.80;;
8881;SDS011;4477;48.736;9.176;2023-04-24T09:32:35;1.93;;;1.60;;
8881;SDS011;4477;48.736;9.176;2023-04-24T09:35:06;3.27;;;1.57;;
8881;SDS011;4477;48.736;9.176;2023-04-24T09:37:37;2.47;;;1.50;;
8881;SDS011;4477;48.736;9.176;2023-04-24T09:40:09;3.30;;;1.10;;
8881;SDS011;4477;48.736;9.176;2023-04-24T09:42:37;5.07;;;1.30;;
8881;SDS011;4477;48.736;9.176;2023-04-24T09:45:05;2.87;;;1.20;;
8881;SDS011;4477;48.736;9.176;2023-04-24T09:47:35;1.70;;;1.30;;
8881;SDS011;4477;48.736;9.176;2023-04-24T09:50:08;1.80;;;1.20;;
8881;SDS011;4477;48.736;9.176;2023-04-24T09:52:36;0.83;;;0.80;;
8881;SDS011;4477;48.736;9.176;2023-04-24T09:55:11;1.53;;;1.37;;
8881;SDS011;4477;48.736;9.176;2023-04-24T09:57:46;1.90;;;1.10;;
8881;SDS011;4477;48.736;9.176;2023-04-24T10:00:13;1.33;;;0.97;;
8881;SDS011;4477;48.736;9.176;2023-04-24T10:02:44;2.77;;;1.00;;
8881;SDS011;4477;48.736;9.176;2023-04-24T10:05:11;1.40;;;0.97;;
8881;SDS011;4477;48.736;9.176;2023-04-24T10:07:38;2.40;;;1.23;;
8881;SDS011;4477;48.736;9.176;2023-04-24T10:10:06;2.20;;;0.90;;
8881;SDS011;4477;48.736;9.176;2023-04-24T10:12:34;1.43;;;1.17;;
8881;SDS011;4477;48.736;9.176;2023-04-24T10:15:02;1.80;;;1.67;;
8881;SDS011;4477;48.736;9.176;2023-04-24T10:17:30;1.20;;;1.10;;
8881;SDS011;4477;48.736;9.176;2023-04-24T10:19:58;3.63;;;1.50;;
8881;SDS011;4477;48.736;9.176;2023-04-24T10:22:26;2.33;;;1.37;;
8881;SDS011;4477;48.736;9.176;2023-04-24T10:24:54;1.53;;;1.07;;
8881;SDS011;4477;48.736;9.176;2023-04-24T10:27:22;2.33;;;1.30;;
8881;SDS011;4477;48.736;9.176;2023-04-24T10:29:51;1.47;;;1.23;;
8881;SDS011;4477;48.736;9.176;2023-04-24T10:32:20;1.70;;;1.00;;
8881;SDS011;4477;48.736;9.176;2023-04-24T10:34:47;1.63;;;1.20;;
8881;SDS011;4477;48.736;9.176;2023-04-24T10:37:14;1.80;;;1.20;;
8881;SDS011;4477;48.736;9.176;2023-04-24T10:39:42;1.83;;;1.10;;
8881;SDS011;4477;48.736;9.176;2023-04-24T10:42:15;1.63;;;1.20;;
8881;SDS011;4477;48.736;9.176;2023-04-24T10:44:42;2.00;;;1.20;;
8881;SDS011;4477;48.736;9.176;2023-04-24T10:47:13;3.43;;;1.33;;
8881;SDS011;4477;48.736;9.176;2023-04-24T10:49:40;1.90;;;0.93;;
8881;SDS011;4477;48.736;9.176;2023-04-24T10:52:08;2.50;;;1.20;;
8881;SDS011;4477;48.736;9.176;2023-04-24T10:54:41;1.90;;;1.20;;
8881;SDS011;4477;48.736;9.176;2023-04-24T10:57:26;1.10;;;1.00;;
8881;SDS011;4477;48.736;9.176;2023-04-24T11:00:12;2.77;;;1.20;;
8881;SDS011;4477;48.736;9.176;2023-04-24T11:02:41;1.40;;;1.30;;
8881;SDS011;4477;48.736;9.176;2023-04-24T11:05:14;1.30;;;1.03;;
8881;SDS011;4477;48.736;9.176;2023-04-24T11:10:27;6.43;;;2.20;;
8881;SDS011;4477;48.736;9.176;2023-04-24T11:12:55;5.57;;;2.63;;
8881;SDS011;4477;48.736;9.176;2023-04-24T11:15:22;4.30;;;1.67;;
8881;SDS011;4477;48.736;9.176;2023-04-24T11:17:50;1.30;;;1.00;;
8881;SDS011;4477;48.736;9.176;2023-04-24T11:20:23;2.23;;;1.40;;
8881;SDS011;4477;48.736;9.176;2023-04-24T11:22:52;1.87;;;1.30;;
8881;SDS011;4477;48.736;9.176;2023-04-24T11:25:20;1.20;;;1.10;;
8881;SDS011;4477;48.736;9.176;2023-04-24T11:27:48;2.33;;;1.23;;
8881;SDS011;4477;48.736;9.176;2023-04-24T11:30:16;2.07;;;1.30;;
8881;SDS011;4477;48.736;9.176;2023-04-24T11:32:47;3.23;;;1.70;;
8881;SDS011;4477;48.736;9.176;2023-04-24T11:35:16;1.37;;;1.17;;
8881;SDS011;4477;48.736;9.176;2023-04-24T11:37:44;1.53;;;1.43;;
8881;SDS011;4477;48.736;9.176;2023-04-24T11:40:12;1.30;;;1.10;;
8881;SDS011;4477;48.736;9.176;2023-04-24T11:42:42;1.50;;;1.00;;
8881;SDS011;4477;48.736;9.176;2023-04-24T11:45:11;1.17;;;1.07;;
8881;SDS011;4477;48.736;9.176;2023-04-24T11:47:38;2.17;;;1.00;;
8881;SDS011;4477;48.736;9.176;2023-04-24T11:50:07;1.30;;;1.20;;
8881;SDS011;4477;48.736;9.176;2023-04-24T11:52:38;2.90;;;1.40;;
8881;SDS011;4477;48.736;9.176;2023-04-24T11:55:06;2.80;;;1.53;;
8881;SDS011;4477;48.736;9.176;2023-04-24T11:57:34;4.97;;;2.00;;
8881;SDS011;4477;48.736;9.176;2023-04-24T12:00:01;2.20;;;1.30;;
8881;SDS011;4477;48.736;9.176;2023-04-24T12:02:30;2.40;;;1.30;;
8881;SDS011;4477;48.736;9.176;2023-04-24T12:04:57;3.00;;;1.97;;
8881;SDS011;4477;48.736;9.176;2023-04-24T12:07:24;1.57;;;1.30;;
8881;SDS011;4477;48.736;9.176;2023-04-24T12:09:56;1.77;;;1.30;;
8881;SDS011;4477;48.736;9.176;2023-04-24T12:12:24;2.63;;;1.40;;
8881;SDS011;4477;48.736;9.176;2023-04-24T12:14:52;1.50;;;1.30;;
8881;SDS011;4477;48.736;9.176;2023-04-24T12:17:23;3.03;;;1.67;;
8881;SDS011;4477;48.736;9.176;2023-04-24T12:19:50;3.13;;;1.50;;
8881;SDS011;4477;48.736;9.176;2023-04-24T12:22:18;2.60;;;1.27;;
8881;SDS011;4477;48.736;9.176;2023-04-24T12:25:00;3.30;;;1.73;;
8881;SDS011;4477;48.736;9.176;2023-04-24T12:27:30;3.93;;;1.70;;
8881;SDS011;4477;48.736;9.176;2023-04-24T12:29:58;1.80;;;1.30;;
8881;SDS011;4477;48.736;9.176;2023-04-24T12:32:26;3.03;;;1.70;;
8881;SDS011;4477;48.736;9.176;2023-04-24T12:34:53;2.23;;;1.77;;
8881;SDS011;4477;48.736;9.176;2023-04-24T12:37:21;2.47;;;1.87;;
8881;SDS011;4477;48.736;9.176;2023-04-24T12:40:00;1.97;;;1.60;;
8881;SDS011;4477;48.736;9.176;2023-04-24T12:42:28;1.57;;;1.33;;
8881;SDS011;4477;48.736;9.176;2023-04-24T12:44:56;3.13;;;1.77;;
8881;SDS011;4477;48.736;9.176;2023-04-24T12:47:24;2.70;;;1.70;;
8881;SDS011;4477;48.736;9.176;2023-04-24T12:49:51;3.50;;;1.50;;
8881;SDS011;4477;48.736;9.176;2023-04-24T12:52:18;4.80;;;1.53;;
8881;SDS011;4477;48.736;9.176;2023-04-24T12:54:46;3.33;;;1.30;;
8881;SDS011;4477;48.736;9.176;2023-04-24T12:57:15;2.30;;;1.40;;
8881;SDS011;4477;48.736;9.176;2023-04-24T12:59:42;2.80;;;1.30;;
8881;SDS011;4477;48.736;9.176;2023-04-24T13:02:09;1.40;;;1.30;;
8881;SDS011;4477;48.736;9.176;2023-04-24T13:04:37;3.40;;;1.40;;
8881;SDS011;4477;48.736;9.176;2023-04-24T13:07:04;2.67;;;1.43;;
8881;SDS011;4477;48.736;9.176;2023-04-24T13:09:34;1.70;;;1.27;;
8881;SDS011;4477;48.736;9.176;2023-04-24T13:12:01;1.87;;;1.57;;
8881;SDS011;4477;48.736;9.176;2023-04-24T13:14:29;1.50;;;1.30;;
8881;SDS011;4477;48.736;9.176;2023-04-24T13:16:56;3.27;;;1.60;;
8881;SDS011;4477;48.736;9.176;2023-04-24T13:19:24;1.93;;;1.70;;
8881;SDS011;4477;48.736;9.176;2023-04-24T13:21:51;2.73;;;1.90;;
8881;SDS011;4477;48.736;9.176;2023-04-24T13:24:19;3.20;;;1.90;;
8881;SDS011;4477;48.736;9.176;2023-04-24T13:26:46;2.00;;;1.90;;
8881;SDS011;4477;48.736;9.176;2023-04-24T13:29:13;2.43;;;1.63;;
8881;SDS011;4477;48.736;9.176;2023-04-24T13:31:41;2.67;;;1.70;;
8881;SDS011;4477;48.736;9.176;2023-04-24T13:34:08;1.90;;;1.80;;
8881;SDS011;4477;48.736;9.176;2023-04-24T13:36:35;3.37;;;3.07;;
8881;SDS011;4477;48.736;9.176;2023-04-24T13:39:02;5.87;;;4.13;;
8881;SDS011;4477;48.736;9.176;2023-04-24T13:41:32;4.90;;;1.97;;
8881;SDS011;4477;48.736;9.176;2023-04-24T13:44:00;1.80;;;1.70;;
8881;SDS011;4477;48.736;9.176;2023-04-24T13:46:27;2.10;;;1.90;;
8881;SDS011;4477;48.736;9.176;2023-04-24T13:48:55;3.07;;;1.70;;
8881;SDS011;4477;48.736;9.176;2023-04-24T13:51:23;1.70;;;1.60;;
8881;SDS011;4477;48.736;9.176;2023-04-24T13:53:52;2.40;;;1.63;;
8881;SDS011;4477;48.736;9.176;2023-04-24T13:56:18;3.50;;;1.90;;
8881;SDS011;4477;48.736;9.176;2023-04-24T13:58:46;2.47;;;1.93;;
8881;SDS011;4477;48.736;9.176;2023-04-24T14:01:13;3.17;;;2.07;;
8881;SDS011;4477;48.736;9.176;2023-04-24T14:03:40;2.60;;;2.40;;
8881;SDS011;4477;48.736;9.176;2023-04-24T14:06:09;2.00;;;1.80;;
8881;SDS011;4477;48.736;9.176;2023-04-24T14:08:36;1.50;;;1.40;;
8881;SDS011;4477;48.736;9.176;2023-04-24T14:11:03;1.70;;;1.40;;
8881;SDS011;4477;48.736;9.176;2023-04-24T14:13:31;1.87;;;1.30;;
8881;SDS011;4477;48.736;9.176;2023-04-24T14:15:58;2.50;;;1.67;;
8881;SDS011;4477;48.736;9.176;2023-04-24T14:18:25;2.57;;;2.33;;
8881;SDS011;4477;48.736;9.176;2023-04-24T14:20:52;2.23;;;1.90;;
8881;SDS011;4477;48.736;9.176;2023-04-24T14:23:21;1.50;;;1.40;;
8881;SDS011;4477;48.736;9.176;2023-04-24T14:25:48;1.70;;;1.53;;
8881;SDS011;4477;48.736;9.176;2023-04-24T14:28:17;1.60;;;1.50;;
8881;SDS011;4477;48.736;9.176;2023-04-24T14:30:45;2.80;;;2.57;;
8881;SDS011;4477;48.736;9.176;2023-04-24T14:33:12;2.80;;;2.43;;
8881;SDS011;4477;48.736;9.176;2023-04-24T14:35:39;3.60;;;2.50;;
8881;SDS011;4477;48.736;9.176;2023-04-24T14:38:07;2.80;;;2.00;;
8881;SDS011;4477;48.736;9.176;2023-04-24T14:40:35;2.07;;;1.60;;
8881;SDS011;4477;48.736;9.176;2023-04-24T14:43:02;1.70;;;1.50;;
8881;SDS011;4477;48.736;9.176;2023-04-24T14:45:29;1.87;;;1.70;;
8881;SDS011;4477;48.736;9.176;2023-04-24T14:47:57;1.83;;;1.67;;
8881;SDS011;4477;48.736;9.176;2023-04-24T14:50:24;1.87;;;1.70;;
8881;SDS011;4477;48.736;9.176;2023-04-24T14:52:53;2.47;;;1.70;;
8881;SDS011;4477;48.736;9.176;2023-04-24T14:55:22;3.17;;;2.20;;
8881;SDS011;4477;48.736;9.176;2023-04-24T14:57:50;2.50;;;2.10;;
8881;SDS011;4477;48.736;9.176;2023-04-24T15:00:18;2.50;;;1.83;;
8881;SDS011;4477;48.736;9.176;2023-04-24T15:02:46;2.17;;;1.70;;
8881;SDS011;4477;48.736;9.176;2023-04-24T15:05:13;2.33;;;1.73;;
8881;SDS011;4477;48.736;9.176;2023-04-24T15:07:40;4.60;;;1.80;;
8881;SDS011;4477;48.736;9.176;2023-04-24T15:10:08;2.40;;;2.00;;
8881;SDS011;4477;48.736;9.176;2023-04-24T15:12:35;2.83;;;2.10;;
8881;SDS011;4477;48.736;9.176;2023-04-24T15:15:04;3.40;;;2.47;;
8881;SDS011;4477;48.736;9.176;2023-04-24T15:17:31;3.07;;;2.40;;
8881;SDS011;4477;48.736;9.176;2023-04-24T15:19:59;4.57;;;2.40;;
8881;SDS011;4477;48.736;9.176;2023-04-24T15:22:27;3.00;;;2.30;;